Time;durP1;ratioP1;P1;durP2;ratioP2;P2;SDS_P1;SDS_P2;PMS_P1;PMS_P2;Temp;Humidity;BMP_temperature;BMP_pressure;BME280_temperature;BME280_humidity;BME280_pressure;Samples;Min_cycle;Max_cycle;Signal;HPM_P1;HPM_P2
2023/07/16 00:01:17;;;;;;;5.23;3.50;;;27.20;28.50;;;;;;10416370;28;20221;-72
2023/07/16 00:06:22;;;;;;;3.47;3.17;;;27.10;28.90;;;;;;10424800;28;20252;-71
2023/07/16 00:11:25;;;;;;;5.80;3.10;;;27.00;29.70;;;;;;10424932;28;20232;-71
2023/07/16 00:16:28;;;;;;;3.47;3.17;;;27.00;29.70;;;;;;10421110;28;20229;-72
2023/07/16 00:21:33;;;;;;;3.33;3.03;;;26.90;29.70;;;;;;10418856;28;20225;-72
2023/07/16 00:26:36;;;;;;;4.40;3.00;;;26.90;30.10;;;;;;10423272;28;20221;-71
2023/07/16 00:31:39;;;;;;;3.37;3.10;;;26.90;29.70;;;;;;10418794;28;20233;-71
2023/07/16 00:36:44;;;;;;;3.50;3.20;;;26.90;29.70;;;;;;10422045;28;20304;-71
2023/07/16 00:41:47;;;;;;;4.47;3.30;;;26.90;30.70;;;;;;10418657;28;20233;-71
2023/07/16 00:46:50;;;;;;;4.00;3.50;;;26.80;30.00;;;;;;10419523;28;20233;-71
2023/07/16 00:51:56;;;;;;;3.47;3.17;;;26.80;30.60;;;;;;10419926;28;20628;-71
2023/07/16 00:56:59;;;;;;;3.77;3.47;;;26.80;31.60;;;;;;10424377;28;20695;-71
2023/07/16 01:02:03;;;;;;;3.90;3.60;;;26.60;31.30;;;;;;10420697;28;20771;-71
2023/07/16 01:07:11;;;;;;;4.37;3.50;;;26.40;31.70;;;;;;10420905;28;21153;-71
2023/07/16 01:12:15;;;;;;;3.73;3.23;;;26.10;34.00;;;;;;10420952;28;20235;-71
2023/07/16 01:17:18;;;;;;;3.60;3.30;;;25.90;32.60;;;;;;10415580;28;20613;-71
2023/07/16 01:22:42;;;;;;;4.00;3.70;;;25.80;32.80;;;;;;10413942;28;23031;-71
2023/07/16 01:28:06;;;;;;;4.03;3.70;;;25.70;36.70;;;;;;10416424;28;20222;-71
2023/07/16 01:33:12;;;;;;;4.33;3.53;;;25.70;35.40;;;;;;10421478;28;20234;-71
2023/07/16 01:38:18;;;;;;;3.73;3.43;;;25.60;34.90;;;;;;10423973;28;20313;-71
2023/07/16 01:43:25;;;;;;;4.03;3.70;;;25.60;33.80;;;;;;10424019;28;21300;-71
2023/07/16 01:48:34;;;;;;;4.27;3.87;;;25.60;33.90;;;;;;10427809;28;20225;-71
2023/07/16 01:53:37;;;;;;;4.10;3.67;;;25.60;35.60;;;;;;10426762;28;20245;-68
2023/07/16 01:58:40;;;;;;;4.30;3.90;;;25.60;34.00;;;;;;10429445;28;20233;-68
2023/07/16 02:03:45;;;;;;;4.33;3.93;;;25.70;34.50;;;;;;10421856;28;20654;-68
2023/07/16 02:08:48;;;;;;;3.77;3.47;;;25.70;35.30;;;;;;10423196;28;20845;-68
2023/07/16 02:13:51;;;;;;;5.30;3.50;;;25.60;34.60;;;;;;10423257;28;20316;-69
2023/07/16 02:18:56;;;;;;;3.80;3.50;;;25.60;34.70;;;;;;10421169;28;20232;-69
2023/07/16 02:23:59;;;;;;;3.60;3.30;;;25.60;35.90;;;;;;10426342;28;20235;-68
2023/07/16 02:29:02;;;;;;;3.20;2.80;;;25.60;35.10;;;;;;10423589;28;20609;-69
2023/07/16 02:34:07;;;;;;;3.03;2.83;;;25.60;35.20;;;;;;10423902;28;20610;-69
2023/07/16 02:39:10;;;;;;;3.40;2.97;;;25.50;36.20;;;;;;10418527;28;20317;-69
2023/07/16 02:44:13;;;;;;;3.33;3.03;;;25.40;35.60;;;;;;10421434;28;20276;-68
2023/07/16 02:49:18;;;;;;;3.03;2.83;;;25.30;35.80;;;;;;10421695;28;20773;-68
2023/07/16 02:54:21;;;;;;;3.27;2.97;;;25.10;37.80;;;;;;10420216;28;20232;-68
2023/07/16 02:59:24;;;;;;;4.13;2.83;;;24.90;36.90;;;;;;10421012;28;20236;-69
2023/07/16 03:04:29;;;;;;;3.30;3.00;;;24.80;37.20;;;;;;10424402;28;20999;-68
2023/07/16 03:09:32;;;;;;;3.60;2.70;;;24.70;38.50;;;;;;10422355;28;20235;-68
2023/07/16 03:14:35;;;;;;;3.67;2.73;;;24.70;37.60;;;;;;10424219;28;20239;-68
2023/07/16 03:19:40;;;;;;;2.93;2.73;;;24.70;37.70;;;;;;10420040;28;20641;-69
2023/07/16 03:24:43;;;;;;;2.70;2.50;;;24.70;38.80;;;;;;10422352;28;20218;-69
2023/07/16 03:29:46;;;;;;;2.63;2.43;;;24.70;37.80;;;;;;10419963;28;20243;-68
2023/07/16 03:34:50;;;;;;;2.70;2.40;;;24.70;37.70;;;;;;10418180;28;20236;-69
2023/07/16 03:39:53;;;;;;;2.47;2.27;;;24.70;39.00;;;;;;10407977;28;20267;-69
2023/07/16 03:44:57;;;;;;;2.10;2.00;;;24.60;38.00;;;;;;10416120;28;20295;-69
2023/07/16 03:50:02;;;;;;;3.10;2.50;;;24.50;38.10;;;;;;10418392;28;20233;-69
2023/07/16 03:55:06;;;;;;;2.27;2.10;;;24.50;39.30;;;;;;10426390;28;20229;-69
2023/07/16 04:00:10;;;;;;;2.63;2.43;;;24.40;38.40;;;;;;10423528;28;20908;-68
2023/07/16 04:05:15;;;;;;;3.00;2.57;;;24.30;39.10;;;;;;10415838;28;20593;-68
2023/07/16 04:10:18;;;;;;;2.00;1.90;;;24.40;39.60;;;;;;10414887;28;20647;-69
2023/07/16 04:15:22;;;;;;;2.00;1.90;;;24.30;38.90;;;;;;10420975;28;20259;-69
2023/07/16 04:20:26;;;;;;;2.57;2.17;;;24.30;39.00;;;;;;10416188;28;20233;-69
2023/07/16 04:25:30;;;;;;;2.17;1.90;;;24.20;40.20;;;;;;10413859;28;20221;-69
2023/07/16 04:30:33;;;;;;;2.90;1.90;;;24.00;39.30;;;;;;10419833;28;20249;-68
2023/07/16 04:35:38;;;;;;;3.10;1.80;;;23.90;39.90;;;;;;10418613;28;20240;-68
2023/07/16 04:40:43;;;;;;;1.97;1.73;;;23.90;39.90;;;;;;10421690;28;20233;-69
2023/07/16 04:45:47;;;;;;;2.33;1.67;;;23.90;39.90;;;;;;10415742;28;20727;-69
2023/07/16 04:50:53;;;;;;;2.07;1.60;;;23.90;38.90;;;;;;10417273;28;20229;-68
2023/07/16 04:55:57;;;;;;;1.90;1.40;;;23.80;39.80;;;;;;10421001;28;20713;-69
2023/07/16 05:01:00;;;;;;;2.20;2.00;;;23.80;38.90;;;;;;10419827;28;20236;-69
2023/07/16 05:06:05;;;;;;;1.80;1.70;;;23.70;39.10;;;;;;10442616;28;20223;-69
2023/07/16 05:11:08;;;;;;;1.53;1.53;;;23.60;39.70;;;;;;10461214;28;20236;-69
2023/07/16 05:16:11;;;;;;;1.87;1.70;;;23.50;39.60;;;;;;10463103;28;20255;-69
2023/07/16 05:21:16;;;;;;;1.60;1.50;;;23.50;39.60;;;;;;10464114;28;20228;-70
2023/07/16 05:26:19;;;;;;;1.77;1.67;;;23.50;39.60;;;;;;10466539;28;20217;-69
2023/07/16 05:31:22;;;;;;;2.17;1.70;;;23.50;39.60;;;;;;10469336;28;20229;-69
2023/07/16 05:36:27;;;;;;;2.50;1.87;;;23.50;39.60;;;;;;10460315;28;20269;-69
2023/07/16 05:41:30;;;;;;;1.93;1.70;;;23.50;40.20;;;;;;10462736;28;20228;-69
2023/07/16 05:46:34;;;;;;;2.37;1.73;;;23.40;40.20;;;;;;10463398;28;21029;-69
2023/07/16 05:51:39;;;;;;;2.53;1.73;;;23.40;40.60;;;;;;10458735;28;20244;-69
2023/07/16 05:56:42;;;;;;;1.80;1.70;;;23.40;40.40;;;;;;10466737;28;20236;-71
2023/07/16 06:01:46;;;;;;;1.67;1.57;;;23.30;39.40;;;;;;10457680;28;20228;-71
2023/07/16 06:06:50;;;;;;;2.07;1.73;;;23.30;39.50;;;;;;10455019;28;20217;-71
2023/07/16 06:11:55;;;;;;;1.20;1.20;;;23.40;41.00;;;;;;10438420;28;20236;-75
2023/07/16 06:16:58;;;;;;;2.10;1.60;;;23.50;40.10;;;;;;10456838;28;20251;-74
2023/07/16 06:22:03;;;;;;;1.20;1.10;;;23.60;39.70;;;;;;10450844;28;20236;-75
2023/07/16 06:27:06;;;;;;;1.60;1.50;;;23.70;40.60;;;;;;10451822;28;20217;-75
2023/07/16 06:32:11;;;;;;;1.87;1.67;;;23.70;40.30;;;;;;10459736;28;20232;-74
2023/07/16 06:37:15;;;;;;;1.80;1.70;;;23.70;40.90;;;;;;10463583;28;20236;-70
2023/07/16 06:42:19;;;;;;;2.67;1.70;;;23.70;41.20;;;;;;10463881;28;20323;-70
2023/07/16 06:47:22;;;;;;;2.40;1.60;;;23.80;40.80;;;;;;10461478;28;20708;-69
2023/07/16 06:52:27;;;;;;;2.20;1.60;;;23.80;40.80;;;;;;10464250;28;20236;-69
2023/07/16 06:57:30;;;;;;;1.83;1.73;;;23.80;41.70;;;;;;10466438;28;20600;-67
2023/07/16 07:02:34;;;;;;;1.70;1.60;;;23.80;41.60;;;;;;10465789;28;20318;-74
2023/07/16 07:07:38;;;;;;;1.77;1.67;;;23.80;41.30;;;;;;10471710;28;20585;-73
2023/07/16 07:12:41;;;;;;;2.37;1.50;;;23.90;41.90;;;;;;10473469;28;20234;-73
2023/07/16 07:17:46;;;;;;;1.97;1.70;;;24.00;41.70;;;;;;10472519;28;20609;-74
2023/07/16 07:22:51;;;;;;;1.40;1.30;;;24.10;42.00;;;;;;10472254;28;20216;-74
2023/07/16 07:27:54;;;;;;;1.30;1.20;;;24.20;42.30;;;;;;10470326;28;20769;-74
2023/07/16 07:32:57;;;;;;;1.60;1.50;;;24.40;41.00;;;;;;10470314;28;20622;-73
2023/07/16 07:38:02;;;;;;;1.60;1.50;;;24.50;41.00;;;;;;10463019;28;20282;-73
2023/07/16 07:43:05;;;;;;;1.80;1.70;;;24.60;40.60;;;;;;10450471;28;20229;-68
2023/07/16 07:48:08;;;;;;;1.90;1.80;;;24.50;40.50;;;;;;10425527;28;20256;-74
2023/07/16 07:53:14;;;;;;;1.63;1.53;;;24.40;40.80;;;;;;10420845;28;20302;-74
2023/07/16 07:58:17;;;;;;;2.50;1.70;;;24.30;40.30;;;;;;10414044;28;20605;-74
2023/07/16 08:03:21;;;;;;;1.70;1.60;;;24.30;40.30;;;;;;10412172;28;20332;-74
2023/07/16 08:08:25;;;;;;;1.63;1.53;;;24.20;40.20;;;;;;10411006;28;20225;-73
2023/07/16 08:13:29;;;;;;;1.80;1.70;;;24.20;40.30;;;;;;10419732;28;20232;-70
2023/07/16 08:18:32;;;;;;;1.80;1.70;;;24.30;40.30;;;;;;10445298;28;20229;-69
2023/07/16 08:23:37;;;;;;;1.53;1.43;;;24.30;40.00;;;;;;10411960;28;20228;-71
2023/07/16 08:28:40;;;;;;;1.40;1.40;;;24.30;40.30;;;;;;10408673;28;20229;-70
2023/07/16 08:33:45;;;;;;;1.70;1.60;;;24.30;40.10;;;;;;10417238;28;20325;-71
2023/07/16 08:38:49;;;;;;;1.60;1.50;;;24.40;39.60;;;;;;10419311;28;20255;-68
2023/07/16 08:43:54;;;;;;;1.53;1.43;;;24.40;39.80;;;;;;10405262;28;20239;-70
2023/07/16 08:48:58;;;;;;;1.50;1.40;;;24.50;40.50;;;;;;10408161;28;20291;-74
2023/07/16 08:54:04;;;;;;;1.70;1.60;;;24.60;40.10;;;;;;10415727;28;20268;-72
2023/07/16 08:59:07;;;;;;;2.53;2.33;;;24.70;39.90;;;;;;10424897;28;20240;-75
2023/07/16 09:04:11;;;;;;;1.93;1.80;;;24.70;39.50;;;;;;10459211;28;20324;-68
2023/07/16 09:09:25;;;;;;;1.83;1.73;;;24.80;39.10;;;;;;10452423;28;20229;-69
2023/07/16 09:14:28;;;;;;;1.73;1.63;;;24.90;38.80;;;;;;10452257;28;20300;-69
2023/07/16 09:19:33;;;;;;;1.57;1.47;;;24.90;38.80;;;;;;10454332;28;20787;-70
2023/07/16 09:24:38;;;;;;;2.00;1.73;;;24.80;38.70;;;;;;10455756;28;20228;-69
2023/07/16 09:29:41;;;;;;;4.03;1.90;;;24.80;38.90;;;;;;10458360;28;20283;-73
2023/07/16 09:34:44;;;;;;;2.30;2.10;;;24.80;38.60;;;;;;10458317;28;20224;-73
2023/07/16 09:39:49;;;;;;;1.93;1.80;;;24.70;38.80;;;;;;10457827;28;20319;-73
2023/07/16 09:44:54;;;;;;;2.10;1.90;;;24.70;39.60;;;;;;10458306;28;20232;-73
2023/07/16 09:49:58;;;;;;;1.87;1.77;;;24.70;40.70;;;;;;10458830;28;20236;-73
2023/07/16 09:55:04;;;;;;;1.70;1.60;;;24.80;40.10;;;;;;10466695;28;20750;-74
2023/07/16 10:00:12;;;;;;;4.93;1.50;;;24.90;40.20;;;;;;10447122;28;20316;-73
2023/07/16 10:05:16;;;;;;;2.47;1.70;;;25.00;40.00;;;;;;10424855;28;20663;-74
2023/07/16 10:10:40;;;;;;;1.87;1.77;;;25.10;39.40;;;;;;10422617;28;20320;-74
2023/07/16 10:15:54;;;;;;;1.70;1.60;;;25.30;38.80;;;;;;10425548;28;20264;-69
2023/07/16 10:21:02;;;;;;;1.73;1.63;;;25.30;38.80;;;;;;10420574;28;20244;-72
2023/07/16 10:26:08;;;;;;;2.07;1.83;;;25.40;38.20;;;;;;10461497;28;20232;-68
2023/07/16 10:31:19;;;;;;;1.97;1.87;;;25.40;38.10;;;;;;10459893;28;20239;-73
2023/07/16 10:36:22;;;;;;;2.10;1.90;;;25.50;38.90;;;;;;10470932;28;20278;-73
2023/07/16 10:41:27;;;;;;;1.70;1.60;;;25.50;38.10;;;;;;10470040;28;20232;-72
2023/07/16 10:46:32;;;;;;;1.80;1.70;;;25.60;38.00;;;;;;10464762;28;20814;-72
2023/07/16 10:51:36;;;;;;;1.90;1.80;;;25.80;38.80;;;;;;10464580;28;20320;-72
2023/07/16 10:56:42;;;;;;;1.73;1.63;;;26.00;38.60;;;;;;10465020;28;20248;-72
2023/07/16 11:01:46;;;;;;;1.80;1.70;;;26.20;38.20;;;;;;10456967;28;20259;-72
2023/07/16 11:06:51;;;;;;;2.10;1.90;;;26.40;38.10;;;;;;10455986;28;20220;-72
2023/07/16 11:11:56;;;;;;;1.83;1.73;;;26.60;37.20;;;;;;10458849;28;20996;-72
2023/07/16 11:17:06;;;;;;;1.97;1.87;;;26.60;37.20;;;;;;10456521;28;20821;-72
2023/07/16 11:22:11;;;;;;;1.97;1.80;;;26.70;36.60;;;;;;10459123;28;20982;-73
2023/07/16 11:27:17;;;;;;;2.10;1.90;;;26.70;36.60;;;;;;10455786;28;20240;-68
2023/07/16 11:32:31;;;;;;;2.20;2.00;;;26.70;36.10;;;;;;10460255;28;20235;-67
2023/07/16 11:37:37;;;;;;;2.10;1.90;;;26.70;36.50;;;;;;10454371;28;20316;-68
2023/07/16 11:42:42;;;;;;;2.00;1.90;;;26.70;36.40;;;;;;10456399;28;20270;-68
2023/07/16 11:47:46;;;;;;;2.73;2.07;;;26.80;36.40;;;;;;10460599;28;20225;-68
2023/07/16 11:52:54;;;;;;;2.23;2.03;;;26.90;36.70;;;;;;10457499;28;20229;-68
2023/07/16 11:57:59;;;;;;;1.97;1.70;;;26.90;36.50;;;;;;10461972;28;20253;-68
2023/07/16 12:03:02;;;;;;;1.80;1.70;;;27.10;36.50;;;;;;10417066;28;20229;-68
2023/07/16 12:08:06;;;;;;;2.20;2.03;;;27.20;36.10;;;;;;10413849;28;20213;-68
2023/07/16 12:13:10;;;;;;;2.23;1.97;;;27.30;36.00;;;;;;10428153;28;20229;-73
2023/07/16 12:18:13;;;;;;;2.60;1.87;;;27.50;36.00;;;;;;10415352;28;20231;-74
2023/07/16 12:23:17;;;;;;;2.13;2.00;;;27.60;36.30;;;;;;10419039;28;20238;-74
2023/07/16 12:28:21;;;;;;;3.03;2.23;;;27.70;35.90;;;;;;10423869;28;20891;-73
2023/07/16 12:33:24;;;;;;;2.23;1.90;;;27.70;35.20;;;;;;10434827;28;20234;-71
2023/07/16 12:38:28;;;;;;;2.50;2.00;;;27.80;35.60;;;;;;10471937;28;20297;-73
2023/07/16 12:43:34;;;;;;;3.30;2.10;;;27.90;35.60;;;;;;10427559;28;20596;-67
2023/07/16 12:48:38;;;;;;;2.00;1.90;;;27.90;34.60;;;;;;10417189;28;20286;-67
2023/07/16 12:53:44;;;;;;;2.43;2.23;;;28.00;35.40;;;;;;10417800;28;20228;-72
2023/07/16 12:58:50;;;;;;;1.93;1.83;;;28.00;34.70;;;;;;10411481;28;20222;-73
2023/07/16 13:03:53;;;;;;;1.83;1.73;;;28.10;34.70;;;;;;10417183;28;20224;-72
2023/07/16 13:08:56;;;;;;;2.20;2.00;;;28.10;35.10;;;;;;10418915;28;20233;-72
2023/07/16 13:14:01;;;;;;;2.20;2.10;;;28.30;35.00;;;;;;10433703;28;20233;-73
2023/07/16 13:19:04;;;;;;;1.93;1.83;;;28.40;34.60;;;;;;10424669;28;20969;-72
2023/07/16 13:24:07;;;;;;;2.30;2.10;;;28.50;34.40;;;;;;10425182;28;20226;-72
2023/07/16 13:29:12;;;;;;;1.90;1.80;;;28.70;34.10;;;;;;10435762;28;20237;-72
2023/07/16 13:34:15;;;;;;;2.37;2.03;;;28.70;33.60;;;;;;10441895;28;20236;-72
2023/07/16 13:39:19;;;;;;;2.10;2.00;;;28.80;33.70;;;;;;10428524;28;20340;-70
2023/07/16 13:44:24;;;;;;;2.03;1.93;;;28.80;33.50;;;;;;10423385;28;20271;-70
2023/07/16 13:49:27;;;;;;;2.30;2.10;;;29.00;32.50;;;;;;10420995;28;20706;-70
2023/07/16 13:54:30;;;;;;;1.90;1.80;;;29.00;32.60;;;;;;10423466;28;20235;-71
2023/07/16 13:59:35;;;;;;;2.33;2.00;;;28.90;33.10;;;;;;10428419;28;20235;-70
2023/07/16 14:04:38;;;;;;;2.00;1.90;;;29.10;32.10;;;;;;10422653;28;20308;-72
2023/07/16 14:09:41;;;;;;;1.90;1.80;;;29.20;32.60;;;;;;10423579;28;20253;-72
2023/07/16 14:14:46;;;;;;;2.20;2.07;;;29.20;31.70;;;;;;10423460;28;20622;-72
2023/07/16 14:19:50;;;;;;;2.47;1.90;;;29.30;31.10;;;;;;10421349;28;20220;-70
2023/07/16 14:24:53;;;;;;;2.30;2.20;;;29.30;31.60;;;;;;10415696;28;20882;-70
2023/07/16 14:29:58;;;;;;;1.87;1.77;;;29.40;31.20;;;;;;10420006;28;20713;-70
2023/07/16 14:35:09;;;;;;;1.90;1.80;;;29.40;30.90;;;;;;10464609;28;20224;-71
2023/07/16 14:40:32;;;;;;;2.07;1.97;;;29.40;31.10;;;;;;10462469;28;20313;-71
2023/07/16 14:45:36;;;;;;;2.03;1.93;;;29.30;31.10;;;;;;10465886;28;20747;-71
2023/07/16 14:50:40;;;;;;;1.90;1.80;;;29.30;30.90;;;;;;10464101;28;20941;-66
2023/07/16 14:55:48;;;;;;;2.43;2.00;;;29.20;31.00;;;;;;10488881;22;20236;-75
2023/07/16 15:00:52;;;;;;;2.20;2.00;;;29.10;30.80;;;;;;10490585;28;20311;-75
2023/07/16 15:05:57;;;;;;;1.83;1.73;;;29.10;30.80;;;;;;10488555;28;20242;-75
2023/07/16 15:11:01;;;;;;;1.80;1.70;;;29.20;30.40;;;;;;10499509;28;20683;-75
2023/07/16 15:16:06;;;;;;;1.90;1.80;;;29.20;31.70;;;;;;10505854;28;20273;-75
2023/07/16 15:21:09;;;;;;;1.70;1.60;;;29.30;30.20;;;;;;10491083;28;20228;-75
2023/07/16 15:26:13;;;;;;;2.37;1.83;;;29.30;30.50;;;;;;10485293;28;20263;-75
2023/07/16 15:31:19;;;;;;;1.90;1.80;;;29.40;30.30;;;;;;10492547;28;20247;-75
2023/07/16 15:36:23;;;;;;;2.00;1.90;;;29.50;29.80;;;;;;10503138;28;20688;-75
2023/07/16 15:41:28;;;;;;;1.87;1.77;;;29.50;29.70;;;;;;10478623;28;20244;-75
2023/07/16 15:46:33;;;;;;;2.10;2.00;;;29.50;29.80;;;;;;10463818;28;20230;-75
2023/07/16 15:51:40;;;;;;;2.10;2.00;;;29.60;29.40;;;;;;10459024;28;20263;-75
2023/07/16 15:56:44;;;;;;;2.60;2.03;;;29.60;29.60;;;;;;10460352;28;20245;-75
2023/07/16 16:01:48;;;;;;;2.23;2.03;;;29.70;29.40;;;;;;10459233;28;20269;-74
2023/07/16 16:06:52;;;;;;;2.23;2.07;;;29.70;28.60;;;;;;10456402;28;20228;-75
2023/07/16 16:11:56;;;;;;;2.53;2.20;;;29.60;28.50;;;;;;10463423;28;20739;-75
2023/07/16 16:17:01;;;;;;;2.30;2.10;;;29.60;28.50;;;;;;10458556;28;20297;-75
2023/07/16 16:22:10;;;;;;;4.87;1.97;;;29.50;28.30;;;;;;10417354;28;20229;-74
2023/07/16 16:27:15;;;;;;;2.23;2.03;;;29.50;28.60;;;;;;10419618;28;20237;-75
2023/07/16 16:32:20;;;;;;;2.10;1.90;;;29.40;28.80;;;;;;10422454;28;20338;-75
2023/07/16 16:37:24;;;;;;;2.20;2.00;;;29.40;28.70;;;;;;10420150;28;20244;-75
2023/07/16 16:42:27;;;;;;;2.10;2.00;;;29.40;29.00;;;;;;10418820;28;20701;-75
2023/07/16 16:47:32;;;;;;;2.10;2.00;;;29.40;28.80;;;;;;10414903;28;20308;-75
2023/07/16 16:52:37;;;;;;;2.07;1.97;;;29.40;28.90;;;;;;10420090;28;20726;-76
2023/07/16 16:57:40;;;;;;;1.90;1.80;;;29.50;29.10;;;;;;10416305;28;20228;-75
2023/07/16 17:02:46;;;;;;;2.73;1.90;;;29.50;29.00;;;;;;10418026;28;20307;-75
2023/07/16 17:07:50;;;;;;;2.10;1.90;;;29.50;28.50;;;;;;10417598;28;20234;-75
2023/07/16 17:12:53;;;;;;;2.00;1.90;;;29.50;28.70;;;;;;10415910;28;20307;-74
2023/07/16 17:17:58;;;;;;;4.37;1.90;;;29.50;28.60;;;;;;10415719;28;20236;-75
2023/07/16 17:23:03;;;;;;;1.90;1.80;;;29.50;28.60;;;;;;10413631;28;20290;-74
2023/07/16 17:28:06;;;;;;;2.13;1.80;;;29.50;28.60;;;;;;10417117;28;20276;-74
2023/07/16 17:33:11;;;;;;;2.13;2.00;;;29.50;28.50;;;;;;10419180;28;20249;-75
2023/07/16 17:38:15;;;;;;;2.00;1.90;;;29.50;28.20;;;;;;10417866;28;20819;-73
2023/07/16 17:43:18;;;;;;;2.07;1.97;;;29.50;28.30;;;;;;10419445;28;20233;-74
2023/07/16 17:48:23;;;;;;;2.00;1.80;;;29.50;28.50;;;;;;10417775;28;20232;-74
2023/07/16 17:53:26;;;;;;;2.10;1.90;;;29.50;28.50;;;;;;10419846;28;20232;-74
2023/07/16 17:58:34;;;;;;;2.13;1.90;;;29.50;28.60;;;;;;10417891;28;20225;-75
2023/07/16 18:03:39;;;;;;;2.43;2.17;;;29.50;28.50;;;;;;10425574;28;20312;-74
2023/07/16 18:08:42;;;;;;;2.13;1.93;;;29.40;28.30;;;;;;10425608;28;20317;-75
2023/07/16 18:13:45;;;;;;;2.43;1.87;;;29.40;28.60;;;;;;10423655;28;20237;-75
2023/07/16 18:18:50;;;;;;;2.30;2.10;;;29.40;28.60;;;;;;10437133;28;20217;-76
2023/07/16 18:23:54;;;;;;;1.90;1.80;;;29.40;28.50;;;;;;10435501;28;20225;-75
2023/07/16 18:28:57;;;;;;;1.93;1.83;;;29.40;28.90;;;;;;10436003;28;20217;-75
2023/07/16 18:34:05;;;;;;;2.07;1.97;;;29.40;28.70;;;;;;10424552;28;20225;-75
2023/07/16 18:39:15;;;;;;;3.23;1.83;;;29.40;28.80;;;;;;10463373;28;20289;-75
2023/07/16 18:44:18;;;;;;;1.83;1.73;;;29.50;28.90;;;;;;10465740;28;20236;-76
2023/07/16 18:49:23;;;;;;;1.80;1.70;;;29.50;29.00;;;;;;10472362;28;20401;-77
2023/07/16 18:54:26;;;;;;;2.00;1.90;;;29.50;29.00;;;;;;10469565;28;20224;-76
2023/07/16 18:59:29;;;;;;;1.90;1.80;;;29.60;29.30;;;;;;10471618;28;20225;-76
2023/07/16 19:04:34;;;;;;;2.30;2.10;;;29.60;29.40;;;;;;10468059;28;20848;-74
2023/07/16 19:09:38;;;;;;;2.10;2.00;;;29.60;29.60;;;;;;10478671;28;20243;-75
2023/07/16 19:14:41;;;;;;;2.60;2.00;;;29.50;29.50;;;;;;10473267;28;20785;-75
2023/07/16 19:19:46;;;;;;;1.80;1.70;;;29.40;28.90;;;;;;10477141;28;20657;-76
2023/07/16 19:24:49;;;;;;;2.57;2.10;;;29.20;29.00;;;;;;10469217;28;20259;-75
2023/07/16 19:29:52;;;;;;;2.27;2.17;;;29.10;29.20;;;;;;10488990;28;20739;-76
2023/07/16 19:35:03;;;;;;;2.30;1.90;;;28.90;29.30;;;;;;10472954;28;20221;-77
2023/07/16 19:40:10;;;;;;;2.10;2.00;;;28.70;30.20;;;;;;10458851;28;20278;-75
2023/07/16 19:45:13;;;;;;;2.33;2.23;;;28.60;29.80;;;;;;10452800;28;20244;-77
2023/07/16 19:50:19;;;;;;;2.03;1.93;;;28.40;29.80;;;;;;10466845;28;20977;-78
2023/07/16 19:55:22;;;;;;;2.30;2.10;;;28.30;30.40;;;;;;10464778;28;20530;-77
2023/07/16 20:00:26;;;;;;;2.37;2.27;;;28.10;30.30;;;;;;10463186;28;20328;-76
2023/07/16 20:05:31;;;;;;;2.60;2.10;;;27.80;30.10;;;;;;10453498;28;20260;-79
2023/07/16 20:10:35;;;;;;;2.60;1.80;;;27.50;30.40;;;;;;10448670;28;20232;-77
2023/07/16 20:15:38;;;;;;;2.30;2.10;;;27.30;30.80;;;;;;10466784;28;20332;-78
2023/07/16 20:20:44;;;;;;;2.80;2.60;;;27.10;31.20;;;;;;10463277;28;20719;-78
2023/07/16 20:25:47;;;;;;;3.93;2.30;;;27.00;32.10;;;;;;10484265;28;20762;-78
2023/07/16 20:30:52;;;;;;;2.10;1.93;;;26.90;32.00;;;;;;10482639;28;20302;-78
2023/07/16 20:35:57;;;;;;;2.40;2.20;;;26.70;32.00;;;;;;10477606;28;20775;-79
2023/07/16 20:41:00;;;;;;;2.00;1.90;;;26.60;33.30;;;;;;10476009;28;20311;-78
2023/07/16 20:46:04;;;;;;;2.67;2.47;;;26.60;33.10;;;;;;10435728;28;20324;-79
2023/07/16 20:51:10;;;;;;;2.60;2.40;;;26.60;33.00;;;;;;10439823;28;20221;-79
2023/07/16 20:56:14;;;;;;;2.67;2.37;;;26.50;33.40;;;;;;10431321;28;20312;-78
2023/07/16 21:01:17;;;;;;;2.43;2.30;;;26.40;33.20;;;;;;10437666;28;20300;-78
2023/07/16 21:06:23;;;;;;;2.17;2.07;;;26.30;33.50;;;;;;10434481;28;21041;-78
2023/07/16 21:11:26;;;;;;;2.47;2.27;;;26.30;34.40;;;;;;10431160;28;20244;-78
2023/07/16 21:16:29;;;;;;;2.93;2.23;;;26.30;34.00;;;;;;10417820;28;20228;-75
2023/07/16 21:21:34;;;;;;;2.07;1.97;;;26.10;34.20;;;;;;10414101;28;20241;-76
2023/07/16 21:26:37;;;;;;;2.47;2.27;;;26.00;35.00;;;;;;10417998;28;20286;-76
2023/07/16 21:31:41;;;;;;;2.50;2.30;;;26.10;34.50;;;;;;10418338;28;20232;-76
2023/07/16 21:36:45;;;;;;;2.47;2.27;;;26.10;34.70;;;;;;10421658;28;20252;-76
2023/07/16 21:41:49;;;;;;;2.63;2.33;;;26.10;34.70;;;;;;10442422;28;20328;-76
2023/07/16 21:46:52;;;;;;;2.43;2.23;;;26.10;34.50;;;;;;10422215;28;20228;-76
2023/07/16 21:51:59;;;;;;;2.53;2.33;;;26.00;34.40;;;;;;10422804;28;20324;-76
2023/07/16 21:57:03;;;;;;;3.00;2.40;;;26.00;35.10;;;;;;10416685;28;20229;-76
2023/07/16 22:02:07;;;;;;;2.53;2.33;;;25.80;34.80;;;;;;10418710;28;20232;-76
2023/07/16 22:07:12;;;;;;;2.83;2.63;;;25.70;35.20;;;;;;10426346;28;20232;-76
2023/07/16 22:12:15;;;;;;;2.17;2.07;;;25.70;36.00;;;;;;10431036;28;20221;-76
2023/07/16 22:17:18;;;;;;;2.10;2.00;;;25.70;35.30;;;;;;10424644;28;20217;-79
2023/07/16 22:22:23;;;;;;;3.17;2.30;;;25.60;35.40;;;;;;10454251;28;20267;-79
2023/07/16 22:27:27;;;;;;;2.60;2.40;;;25.60;36.00;;;;;;10453651;28;20232;-79
2023/07/16 22:32:31;;;;;;;2.50;2.30;;;25.60;35.80;;;;;;10445435;28;20851;-79
2023/07/16 22:37:35;;;;;;;2.50;2.30;;;25.60;35.60;;;;;;10446340;28;20239;-79
2023/07/16 22:42:38;;;;;;;2.87;2.00;;;25.60;36.40;;;;;;10441069;28;20240;-75
2023/07/16 22:47:42;;;;;;;2.50;2.40;;;25.50;35.70;;;;;;10428541;28;20687;-75
2023/07/16 22:52:46;;;;;;;3.40;2.33;;;25.40;35.80;;;;;;10436464;28;20360;-75
2023/07/16 22:57:49;;;;;;;2.70;2.50;;;25.30;36.40;;;;;;10432907;28;20983;-75
2023/07/16 23:02:52;;;;;;;3.13;2.67;;;25.10;36.40;;;;;;10431270;28;20229;-75
2023/07/16 23:07:57;;;;;;;3.13;2.60;;;24.90;36.90;;;;;;10438558;28;20236;-75
2023/07/16 23:13:01;;;;;;;2.47;2.30;;;24.80;37.60;;;;;;10435644;28;20227;-77
2023/07/16 23:18:05;;;;;;;3.03;2.83;;;24.70;38.40;;;;;;10430643;28;20223;-79
2023/07/16 23:23:09;;;;;;;2.77;2.57;;;24.70;37.50;;;;;;10438751;28;20225;-78
2023/07/16 23:28:13;;;;;;;2.83;2.00;;;24.70;37.90;;;;;;10435339;28;20225;-78
2023/07/16 23:33:16;;;;;;;2.20;2.10;;;24.70;37.40;;;;;;10435282;28;20296;-79
2023/07/16 23:38:22;;;;;;;2.60;2.40;;;24.70;37.40;;;;;;10434667;28;20221;-78
2023/07/16 23:43:25;;;;;;;2.40;2.20;;;24.70;38.10;;;;;;10427673;28;20256;-75
2023/07/16 23:48:28;;;;;;;4.00;2.50;;;24.70;37.60;;;;;;10429645;28;20263;-76
2023/07/16 23:53:33;;;;;;;2.53;2.33;;;24.50;37.70;;;;;;10435952;28;20307;-76
2023/07/16 23:58:36;;;;;;;2.40;2.30;;;24.50;38.60;;;;;;10433052;28;20290;-76
